Time;durP1;ratioP1;P1;durP2;ratioP2;P2;SDS_P1;SDS_P2;PMS_P1;PMS_P2;Temp;Humidity;BMP_temperature;BMP_pressure;BME280_temperature;BME280_humidity;BME280_pressure;Samples;Min_cycle;Max_cycle;Signal;HPM_P1;HPM_P2
2024/04/11 00:01:55;;;;;;;1.97;1.77;;;;;;;20.33;54.98;98955.97;5435003;26;20233;-30
2024/04/11 00:04:23;;;;;;;1.70;1.60;;;;;;;20.34;54.75;98966.28;5440467;26;20284;-28
2024/04/11 00:06:51;;;;;;;2.30;1.70;;;;;;;20.35;55.20;98962.06;5427931;26;20267;-27
2024/04/11 00:09:17;;;;;;;3.53;2.10;;;;;;;20.36;54.95;98966.38;5426116;26;20339;-28
2024/04/11 00:11:44;;;;;;;1.87;1.77;;;;;;;20.33;54.42;98963.63;5440073;26;20233;-26
2024/04/11 00:14:11;;;;;;;2.00;1.80;;;;;;;20.36;54.64;98966.38;5431903;26;20526;-29
2024/04/11 00:16:38;;;;;;;3.43;1.80;;;;;;;20.37;54.23;98963.91;5446085;26;20331;-27
2024/04/11 00:19:05;;;;;;;2.33;1.70;;;;;;;20.38;54.79;98965.69;5446640;26;20268;-28
2024/04/11 00:21:31;;;;;;;2.07;1.87;;;;;;;20.39;54.77;98969.09;5440158;26;20272;-27
2024/04/11 00:23:58;;;;;;;2.87;1.80;;;;;;;20.38;54.74;98973.34;5441969;26;20639;-27
2024/04/11 00:26:26;;;;;;;1.80;1.70;;;;;;;20.40;54.54;98969.19;5437953;26;20247;-26
2024/04/11 00:28:53;;;;;;;2.17;1.97;;;;;;;20.40;54.83;98958.97;5429578;26;20235;-26
2024/04/11 00:31:20;;;;;;;1.53;1.43;;;;;;;20.34;54.99;98961.16;5446114;26;20264;-28
2024/04/11 00:33:56;;;;;;;2.60;1.80;;;;;;;20.31;55.08;98958.44;5434402;26;20234;-26
2024/04/11 00:36:24;;;;;;;2.10;1.50;;;;;;;20.27;54.52;98943.75;5430441;26;20226;-26
2024/04/11 00:38:51;;;;;;;1.93;1.73;;;;;;;20.24;55.22;98953.78;5434173;26;20233;-27
2024/04/11 00:41:19;;;;;;;1.80;1.70;;;;;;;20.24;54.94;98952.91;5424732;26;20603;-26
2024/04/11 00:43:47;;;;;;;1.90;1.80;;;;;;;20.24;55.27;98948.69;5429644;26;20349;-28
2024/04/11 00:46:14;;;;;;;1.90;1.70;;;;;;;20.26;54.59;98952.22;5436988;26;20790;-26
2024/04/11 00:48:42;;;;;;;1.97;1.60;;;;;;;20.26;54.90;98946.22;5437462;26;20265;-26
2024/04/11 00:51:09;;;;;;;2.10;1.90;;;;;;;20.29;54.69;98942.19;5420054;26;20311;-29
2024/04/11 00:53:36;;;;;;;1.70;1.60;;;;;;;20.30;54.69;98946.47;5435166;26;20234;-30
2024/04/11 00:56:04;;;;;;;1.70;1.60;;;;;;;20.28;54.71;98939.53;5395530;26;20229;-30
2024/04/11 00:58:31;;;;;;;1.83;1.73;;;;;;;20.32;55.02;98946.56;5430544;26;20485;-27
2024/04/11 01:00:58;;;;;;;2.03;1.83;;;;;;;20.35;55.06;98956.97;5401489;26;20237;-31
2024/04/11 01:03:25;;;;;;;2.07;1.87;;;;;;;20.36;54.98;98949.38;5434773;26;20234;-27
2024/04/11 01:05:52;;;;;;;2.10;1.90;;;;;;;20.35;54.68;98944.19;5415433;26;20761;-31
2024/04/11 01:08:19;;;;;;;2.20;2.00;;;;;;;20.36;54.49;98944.28;5427915;26;20229;-28
2024/04/11 01:10:46;;;;;;;1.80;1.70;;;;;;;20.37;54.92;98947.72;5436324;26;20234;-27
2024/04/11 01:13:12;;;;;;;1.80;1.70;;;;;;;20.37;54.83;98942.59;5416495;26;20276;-26
2024/04/11 01:15:39;;;;;;;4.00;1.80;;;;;;;20.30;54.58;98941.38;5421481;26;20557;-27
2024/04/11 01:18:06;;;;;;;1.67;1.57;;;;;;;20.26;55.01;98946.22;5432836;26;20231;-30
2024/04/11 01:20:33;;;;;;;1.80;1.70;;;;;;;20.24;55.02;98943.59;5431893;26;20230;-26
2024/04/11 01:23:01;;;;;;;2.47;1.90;;;;;;;20.22;55.36;98936.63;5434875;26;20785;-30
2024/04/11 01:25:29;;;;;;;1.97;1.80;;;;;;;20.22;55.35;98941.75;5425529;26;20231;-28
2024/04/11 01:27:57;;;;;;;1.70;1.60;;;;;;;20.22;55.45;98934.09;5440903;26;20238;-28
2024/04/11 01:30:24;;;;;;;1.90;1.80;;;;;;;20.24;54.95;98935.91;5436296;26;20225;-28
2024/04/11 01:32:50;;;;;;;1.87;1.77;;;;;;;20.28;55.37;98939.53;5442821;26;20235;-27
2024/04/11 01:35:18;;;;;;;1.50;1.40;;;;;;;20.27;54.93;98931.00;5424040;26;20226;-26
2024/04/11 01:37:44;;;;;;;1.80;1.70;;;;;;;20.28;54.81;98932.75;5418312;26;20861;-31
2024/04/11 01:40:16;;;;;;;2.33;1.73;;;;;;;20.30;54.90;98932.81;5424645;26;20708;-25
2024/04/11 01:42:43;;;;;;;1.93;1.80;;;;;;;20.30;54.99;98926.06;5419765;26;20414;-30
2024/04/11 01:45:10;;;;;;;1.97;1.70;;;;;;;20.32;55.15;98928.69;5439956;26;20273;-28
2024/04/11 01:47:39;;;;;;;1.70;1.60;;;;;;;20.33;55.05;98931.34;5426148;26;20241;-32
2024/04/11 01:50:07;;;;;;;2.30;1.80;;;;;;;20.33;54.57;98930.44;5434154;26;20737;-26
2024/04/11 01:52:33;;;;;;;1.63;1.53;;;;;;;20.34;54.95;98934.78;5430973;26;20291;-29
2024/04/11 01:55:00;;;;;;;2.00;1.80;;;;;;;20.29;55.07;98928.53;5424518;26;20238;-27
2024/04/11 01:57:27;;;;;;;2.23;2.03;;;;;;;20.25;54.75;98921.50;5423571;26;20235;-28
2024/04/11 01:59:55;;;;;;;1.70;1.60;;;;;;;20.23;55.09;98923.06;5420362;26;20235;-28
2024/04/11 02:02:24;;;;;;;2.00;1.77;;;;;;;20.15;54.84;98911.53;5419673;26;20616;-27
2024/04/11 02:04:51;;;;;;;2.47;1.73;;;;;;;20.19;54.89;98924.56;5429465;26;20329;-30
2024/04/11 02:07:18;;;;;;;1.80;1.70;;;;;;;20.20;55.17;98917.78;5419892;26;20243;-27
2024/04/11 02:09:45;;;;;;;1.87;1.70;;;;;;;20.22;55.33;98916.22;5417188;26;20231;-27
2024/04/11 02:12:11;;;;;;;2.50;2.00;;;;;;;20.23;54.92;98918.84;5425651;26;20641;-26
2024/04/11 02:14:38;;;;;;;1.87;1.63;;;;;;;20.25;54.58;98912.13;5433899;26;20803;-29
2024/04/11 02:17:07;;;;;;;2.30;1.93;;;;;;;20.28;54.98;98914.00;5427155;26;20239;-26
2024/04/11 02:19:37;;;;;;;2.30;1.70;;;;;;;20.29;55.12;98903.00;5424446;26;20780;-27
2024/04/11 02:22:07;;;;;;;1.87;1.77;;;;;;;20.30;55.08;98904.75;5428756;26;20321;-26
2024/04/11 02:24:35;;;;;;;2.47;1.73;;;;;;;20.30;55.07;98903.06;5432731;26;20276;-28
2024/04/11 02:27:03;;;;;;;1.60;1.50;;;;;;;20.31;54.83;98896.31;5431516;26;20249;-26
2024/04/11 02:29:30;;;;;;;2.30;2.00;;;;;;;20.32;55.12;98901.50;5417619;26;20665;-26
2024/04/11 02:31:56;;;;;;;1.70;1.60;;;;;;;20.30;54.50;98899.63;5422410;26;20306;-31
2024/04/11 02:34:26;;;;;;;1.73;1.63;;;;;;;20.30;54.51;98899.63;5424418;26;20599;-31
2024/04/11 02:36:53;;;;;;;1.77;1.67;;;;;;;20.25;54.41;98901.06;5427825;26;20239;-30
2024/04/11 02:39:20;;;;;;;1.83;1.60;;;;;;;20.21;54.95;98901.69;5417353;26;20230;-29
2024/04/11 02:41:47;;;;;;;1.80;1.70;;;;;;;20.20;54.83;98905.94;5432000;26;20231;-25
2024/04/11 02:44:18;;;;;;;1.90;1.70;;;;;;;20.17;55.32;98894.66;5434758;26;20301;-28
2024/04/11 02:46:46;;;;;;;2.23;2.03;;;;;;;20.19;54.78;98904.16;5417491;26;20238;-27
2024/04/11 02:49:15;;;;;;;1.73;1.63;;;;;;;20.21;55.26;98901.69;5427466;26;20724;-29
2024/04/11 02:51:41;;;;;;;1.97;1.77;;;;;;;20.17;54.75;98887.00;5415469;26;20678;-29
2024/04/11 02:54:10;;;;;;;2.07;1.80;;;;;;;20.25;55.16;98904.47;5446090;26;20288;-31
2024/04/11 02:56:37;;;;;;;2.13;1.73;;;;;;;20.27;54.91;98902.03;5427159;26;20278;-28
2024/04/11 02:59:04;;;;;;;1.97;1.80;;;;;;;20.26;54.99;98893.50;5433521;26;20631;-27
2024/04/11 03:01:31;;;;;;;1.80;1.70;;;;;;;20.29;54.70;98906.44;5428197;26;20238;-27
2024/04/11 03:03:59;;;;;;;2.10;1.90;;;;;;;20.29;54.85;98911.53;5428958;26;20280;-27
2024/04/11 03:06:26;;;;;;;2.67;1.90;;;;;;;20.28;54.75;98909.75;5425452;26;20230;-38
2024/04/11 03:08:56;;;;;;;1.70;1.60;;;;;;;20.31;55.00;98917.59;5428669;26;20234;-27
2024/04/11 03:11:24;;;;;;;1.70;1.60;;;;;;;20.32;54.96;98921.94;5418808;26;20235;-26
2024/04/11 03:13:55;;;;;;;2.30;2.10;;;;;;;20.28;54.54;98924.22;5422651;26;20241;-30
2024/04/11 03:16:24;;;;;;;1.97;1.80;;;;;;;20.23;54.51;98925.63;5419670;26;20230;-33
2024/04/11 03:18:54;;;;;;;2.10;1.80;;;;;;;20.20;55.25;98923.78;5414051;26;20235;-37
2024/04/11 03:21:20;;;;;;;1.80;1.70;;;;;;;20.19;55.33;98921.16;5424959;26;20277;-30
2024/04/11 03:23:47;;;;;;;1.80;1.70;;;;;;;20.17;54.61;98918.50;5423284;26;20238;-28
2024/04/11 03:26:14;;;;;;;1.70;1.60;;;;;;;20.18;55.37;98916.81;5415371;26;20253;-28
2024/04/11 03:28:44;;;;;;;1.80;1.70;;;;;;;20.20;54.99;98921.25;5430524;26;20628;-27
2024/04/11 03:31:13;;;;;;;2.03;1.80;;;;;;;20.24;55.20;98927.38;5421628;26;20261;-26
2024/04/11 03:33:40;;;;;;;1.80;1.70;;;;;;;20.22;54.71;98924.72;5419781;26;20238;-31
2024/04/11 03:36:10;;;;;;;2.37;1.67;;;;;;;20.26;54.57;98933.47;5421326;26;20289;-26
2024/04/11 03:38:38;;;;;;;1.90;1.80;;;;;;;20.25;55.10;98932.56;5432044;26;20273;-28
2024/04/11 03:41:09;;;;;;;10.23;1.77;;;;;;;20.27;54.46;98935.22;5430541;26;20241;-28
2024/04/11 03:43:37;;;;;;;2.20;2.00;;;;;;;20.27;54.92;98938.66;5434853;26;20343;-26
2024/04/11 03:46:07;;;;;;;2.03;1.83;;;;;;;20.28;55.07;98926.78;5425306;26;20325;-27
2024/04/11 03:48:34;;;;;;;7.50;2.10;;;;;;;20.28;54.73;98939.53;5425469;26;20234;-29
2024/04/11 03:51:32;;;;;;;1.70;1.57;;;;;;;20.25;54.97;98940.22;5422820;26;20346;-26
2024/04/11 03:54:02;;;;;;;2.07;1.87;;;;;;;20.21;54.97;98939.97;5419090;26;20310;-25
2024/04/11 03:56:29;;;;;;;1.90;1.70;;;;;;;20.18;55.16;98940.69;5429877;26;20273;-27
2024/04/11 03:58:57;;;;;;;1.77;1.50;;;;;;;20.16;55.24;98947.38;5419350;26;20335;-28
2024/04/11 04:01:27;;;;;;;1.70;1.60;;;;;;;20.16;54.66;98946.50;5427318;26;20590;-26
2024/04/11 04:04:02;;;;;;;1.80;1.70;;;;;;;20.17;55.09;98955.91;5424462;26;20281;-35
2024/04/11 04:06:36;;;;;;;1.70;1.60;;;;;;;20.17;54.57;98949.16;5430901;26;20307;-28
2024/04/11 04:09:07;;;;;;;1.67;1.57;;;;;;;20.18;55.00;98945.78;5422299;26;20285;-27
2024/04/11 04:11:38;;;;;;;1.73;1.63;;;;;;;20.21;54.54;98950.19;5424648;26;20225;-25
2024/04/11 04:14:09;;;;;;;2.90;1.93;;;;;;;20.22;55.06;98955.38;5421986;26;20635;-27
2024/04/11 04:16:38;;;;;;;1.87;1.77;;;;;;;20.24;54.72;98946.13;5443406;26;20231;-26
2024/04/11 04:19:07;;;;;;;1.80;1.70;;;;;;;20.26;54.68;98948.78;5441742;26;20268;-28
2024/04/11 04:21:35;;;;;;;2.10;1.90;;;;;;;20.17;54.58;98940.59;5432474;26;20685;-28
2024/04/11 04:24:05;;;;;;;1.70;1.60;;;;;;;20.27;54.83;98960.75;5431347;26;20310;-26
2024/04/11 04:26:33;;;;;;;1.93;1.80;;;;;;;20.27;54.94;98956.53;5438584;26;20231;-27
2024/04/11 04:29:00;;;;;;;2.00;1.80;;;;;;;20.24;54.15;98958.91;5430663;26;20277;-32
2024/04/11 04:31:31;;;;;;;1.83;1.70;;;;;;;20.22;54.52;98969.81;5434915;26;20521;-27
2024/04/11 04:33:58;;;;;;;1.63;1.53;;;;;;;20.20;54.59;98971.41;5426212;26;20834;-25
2024/04/11 04:36:33;;;;;;;1.73;1.63;;;;;;;20.18;54.54;98976.41;5435848;26;20276;-27
2024/04/11 04:39:00;;;;;;;1.83;1.73;;;;;;;20.15;55.18;98966.03;5436608;26;20234;-26
2024/04/11 04:41:28;;;;;;;1.80;1.67;;;;;;;20.16;54.51;98967.78;5438424;26;20672;-25
2024/04/11 04:43:56;;;;;;;2.00;1.80;;;;;;;20.19;54.77;98975.63;5420929;26;20234;-27
2024/04/11 04:46:24;;;;;;;1.93;1.83;;;;;;;20.22;54.51;98980.03;5424961;26;20227;-27
2024/04/11 04:48:52;;;;;;;1.73;1.50;;;;;;;20.23;54.13;98980.13;5419491;26;20269;-28
2024/04/11 04:51:19;;;;;;;2.07;1.87;;;;;;;20.24;53.95;98986.97;5428809;26;20335;-29
2024/04/11 04:53:46;;;;;;;1.80;1.70;;;;;;;20.26;53.18;98989.63;5445074;26;20296;-26
2024/04/11 04:56:13;;;;;;;2.80;2.50;;;;;;;20.22;49.00;98987.69;5436208;26;20290;-30
2024/04/11 04:58:40;;;;;;;5.70;2.53;;;;;;;20.23;50.33;98990.34;5453361;26;20229;-26
2024/04/11 05:01:08;;;;;;;3.13;2.27;;;;;;;20.25;51.58;98996.38;5427591;26;20261;-27
2024/04/11 05:03:35;;;;;;;3.57;2.23;;;;;;;20.25;51.92;98992.97;5439154;26;20237;-29
2024/04/11 05:06:02;;;;;;;2.50;2.30;;;;;;;20.22;52.12;98996.22;5439324;26;20568;-26
2024/04/11 05:08:32;;;;;;;3.23;2.10;;;;;;;20.18;52.99;98996.84;5431809;26;20273;-27
2024/04/11 05:10:59;;;;;;;5.43;2.63;;;;;;;20.16;52.71;99002.66;5436852;26;20273;-26
2024/04/11 05:13:29;;;;;;;3.90;2.60;;;;;;;20.12;49.95;99000.66;5424718;26;20670;-28
2024/04/11 05:15:56;;;;;;;2.97;2.63;;;;;;;20.13;49.17;98999.94;5432027;26;20273;-27
2024/04/11 05:18:23;;;;;;;5.03;3.00;;;;;;;20.16;47.96;99006.06;5428347;26;20747;-29
2024/04/11 05:20:53;;;;;;;4.67;3.00;;;;;;;20.18;47.03;99004.50;5421387;26;20235;-28
2024/04/11 05:23:20;;;;;;;7.40;2.97;;;;;;;20.20;46.19;99007.16;5436898;26;20238;-27
2024/04/11 05:25:46;;;;;;;5.63;3.17;;;;;;;20.18;45.18;99012.16;5447317;26;20239;-27
2024/04/11 05:28:16;;;;;;;5.80;3.03;;;;;;;20.20;45.26;99009.69;5426640;26;20226;-25
2024/04/11 05:30:43;;;;;;;6.67;3.50;;;;;;;20.20;44.55;99019.91;5420674;26;20282;-28
2024/04/11 05:33:10;;;;;;;4.43;3.50;;;;;;;20.20;45.90;99019.91;5434508;26;20282;-27
2024/04/11 05:35:39;;;;;;;4.03;3.17;;;;;;;20.15;47.42;99014.53;5441469;26;20238;-28
2024/04/11 05:38:10;;;;;;;7.23;3.40;;;;;;;20.13;48.22;99017.78;5422178;26;20573;-27
2024/04/11 05:40:38;;;;;;;3.63;3.00;;;;;;;20.10;49.06;99023.56;5418982;26;20261;-26
2024/04/11 05:43:06;;;;;;;3.40;2.87;;;;;;;20.09;49.66;99029.47;5418225;26;20787;-27
2024/04/11 05:45:41;;;;;;;3.83;2.83;;;;;;;20.09;49.04;99032.00;5428417;26;20249;-27
2024/04/11 05:48:08;;;;;;;4.37;3.20;;;;;;;20.11;48.22;99027.00;5449805;26;20233;-27
2024/04/11 05:50:38;;;;;;;8.87;3.63;;;;;;;20.11;46.23;99029.53;5437730;26;20274;-27
2024/04/11 05:53:08;;;;;;;6.20;3.40;;;;;;;20.11;46.32;99027.88;5424770;26;20261;-31
2024/04/11 05:55:35;;;;;;;4.17;3.33;;;;;;;20.13;46.05;99026.31;5425428;26;20233;-26
2024/04/11 05:58:01;;;;;;;6.40;3.70;;;;;;;20.05;46.97;99017.31;5436521;26;20586;-30
2024/04/11 06:00:29;;;;;;;5.27;3.50;;;;;;;20.15;47.48;99029.84;5426878;26;20227;-27
2024/04/11 06:02:56;;;;;;;5.10;3.27;;;;;;;20.14;48.31;99030.66;5423629;26;20242;-29
2024/04/11 06:05:22;;;;;;;7.07;3.13;;;;;;;20.16;49.38;99034.16;5420620;26;20267;-27
2024/04/11 06:07:50;;;;;;;4.17;3.27;;;;;;;20.17;49.54;99035.03;5439605;26;20233;-27
2024/04/11 06:10:20;;;;;;;6.30;3.10;;;;;;;20.11;49.39;99038.09;5434412;26;20234;-41
2024/04/11 06:12:47;;;;;;;3.63;2.77;;;;;;;20.07;50.11;99037.81;5424453;26;20285;-33
2024/04/11 06:15:13;;;;;;;2.83;2.57;;;;;;;20.06;50.50;99043.69;5417561;26;20230;-28
2024/04/11 06:17:41;;;;;;;3.83;3.07;;;;;;;20.07;50.30;99050.59;5425796;26;20278;-29
2024/04/11 06:20:15;;;;;;;4.77;3.27;;;;;;;20.04;51.04;99046.16;5417977;26;20241;-34
2024/04/11 06:22:51;;;;;;;5.17;2.80;;;;;;;20.07;50.65;99048.03;5429860;26;20276;-28
2024/04/11 06:25:19;;;;;;;4.00;2.90;;;;;;;20.08;50.91;99044.69;5416981;26;20335;-40
2024/04/11 06:27:46;;;;;;;5.03;2.67;;;;;;;20.11;50.85;99043.19;5440710;26;20545;-29
2024/04/11 06:30:14;;;;;;;3.00;2.50;;;;;;;20.13;51.39;99045.88;5428464;26;20225;-31
2024/04/11 06:32:41;;;;;;;5.00;2.70;;;;;;;20.13;51.61;99049.28;5431191;26;20254;-31
2024/04/11 06:35:11;;;;;;;3.90;2.90;;;;;;;20.15;51.50;99050.28;5418734;26;20255;-32
2024/04/11 06:37:44;;;;;;;4.53;3.10;;;;;;;20.17;50.96;99052.91;5426854;26;20261;-34
2024/04/11 06:40:13;;;;;;;3.70;2.90;;;;;;;20.18;51.29;99049.56;5418653;26;20604;-27
2024/04/11 06:42:46;;;;;;;6.73;3.10;;;;;;;20.17;51.41;99053.81;5414652;26;20597;-34
2024/04/11 06:45:16;;;;;;;3.13;2.63;;;;;;;20.14;51.08;99050.19;5421260;26;20271;-28
2024/04/11 06:47:43;;;;;;;3.63;2.73;;;;;;;20.11;51.83;99058.50;5414369;26;20776;-27
2024/04/11 06:50:16;;;;;;;4.97;2.70;;;;;;;20.09;51.75;99052.44;5416505;26;20226;-27
2024/04/11 06:52:43;;;;;;;3.60;2.53;;;;;;;20.09;52.16;99056.63;5421035;26;20352;-29
2024/04/11 06:55:13;;;;;;;4.97;2.77;;;;;;;20.10;52.17;99058.41;5434162;26;20245;-32
2024/04/11 06:57:46;;;;;;;3.87;2.53;;;;;;;20.10;51.72;99050.78;5414555;26;20226;-28
2024/04/11 07:00:26;;;;;;;3.70;2.50;;;;;;;20.12;52.19;99059.38;5432690;26;20242;-28
2024/04/11 07:02:54;;;;;;;3.00;2.70;;;;;;;20.13;51.64;99049.28;5412538;26;20234;-29
2024/04/11 07:05:21;;;;;;;3.10;2.40;;;;;;;20.15;51.70;99051.94;5411899;26;20325;-27
2024/04/11 07:07:54;;;;;;;3.03;2.40;;;;;;;20.16;51.93;99048.59;5422018;26;20643;-29
2024/04/11 07:10:24;;;;;;;3.30;2.73;;;;;;;20.18;52.28;99052.09;5427599;26;20230;-27
2024/04/11 07:12:54;;;;;;;2.70;2.50;;;;;;;20.19;52.11;99053.91;5420758;26;20231;-26
2024/04/11 07:15:28;;;;;;;2.40;2.20;;;;;;;20.20;52.17;99059.09;5424096;26;20296;-27
2024/04/11 07:17:58;;;;;;;3.27;2.43;;;;;;;20.18;52.01;99059.75;5422685;26;20269;-28
2024/04/11 07:20:31;;;;;;;2.53;2.20;;;;;;;20.15;51.85;99062.13;5437236;26;20863;-33
2024/04/11 07:22:58;;;;;;;2.97;2.10;;;;;;;20.13;51.71;99059.50;5434044;26;20241;-32
2024/04/11 07:25:31;;;;;;;2.97;2.40;;;;;;;20.10;52.43;99054.19;5423961;26;20234;-31
2024/04/11 07:28:00;;;;;;;2.40;2.20;;;;;;;20.10;52.09;99055.88;5442531;26;20314;-29
2024/04/11 07:30:29;;;;;;;3.07;2.60;;;;;;;20.11;52.09;99052.53;5424795;26;20285;-35
2024/04/11 07:32:56;;;;;;;2.23;2.03;;;;;;;20.12;52.11;99050.06;5422966;26;20284;-29
2024/04/11 07:35:26;;;;;;;3.37;2.60;;;;;;;20.13;52.56;99050.97;5416970;26;20238;-32
2024/04/11 07:37:53;;;;;;;3.53;2.63;;;;;;;20.15;52.72;99054.47;5417229;26;20237;-30
2024/04/11 07:40:27;;;;;;;3.20;2.53;;;;;;;20.17;52.38;99058.00;5422296;26;20238;-31
2024/04/11 07:42:55;;;;;;;2.60;2.40;;;;;;;20.17;52.24;99056.34;5426055;26;20229;-27
2024/04/11 07:49:09;;;;;;;3.67;2.80;;;;;;;20.19;52.51;99051.34;5419582;26;20333;-26
2024/04/11 07:51:36;;;;;;;2.97;2.40;;;;;;;20.20;52.27;99050.53;5424839;26;20239;-28
2024/04/11 07:54:04;;;;;;;2.87;2.20;;;;;;;20.15;52.67;99054.47;5416073;26;20279;-27
2024/04/11 07:56:33;;;;;;;2.27;2.07;;;;;;;20.07;52.29;99043.78;5413672;26;20596;-26
2024/04/11 07:58:59;;;;;;;3.30;2.40;;;;;;;20.11;52.18;99055.06;5430151;26;20325;-26
2024/04/11 08:01:34;;;;;;;2.47;2.27;;;;;;;20.11;52.75;99055.97;5422153;26;20277;-25
2024/04/11 08:04:02;;;;;;;2.27;2.00;;;;;;;20.10;52.60;99051.63;5422995;26;20227;-26
2024/04/11 08:06:30;;;;;;;2.73;2.53;;;;;;;20.13;52.94;99056.09;5419093;26;20226;-26
2024/04/11 08:08:58;;;;;;;2.60;2.27;;;;;;;20.17;52.23;99052.91;5431544;26;20229;-26
2024/04/11 08:11:27;;;;;;;2.30;2.10;;;;;;;20.18;52.26;99053.00;5410589;26;20280;-26
2024/04/11 08:13:54;;;;;;;2.17;2.00;;;;;;;20.19;52.34;99047.09;5419547;26;20246;-27
2024/04/11 08:16:21;;;;;;;2.43;2.23;;;;;;;20.21;52.47;99050.63;5427898;26;20250;-25
2024/04/11 08:18:48;;;;;;;2.57;2.20;;;;;;;20.23;52.12;99059.28;5427954;26;20776;-25
2024/04/11 08:21:16;;;;;;;2.90;2.40;;;;;;;20.25;52.07;99061.91;5427079;26;20289;-27
2024/04/11 08:23:45;;;;;;;2.50;2.30;;;;;;;20.25;52.27;99055.09;5440790;26;20816;-27
2024/04/11 08:26:15;;;;;;;2.70;2.10;;;;;;;20.27;52.19;99068.84;5448254;26;20260;-26
2024/04/11 08:28:43;;;;;;;2.33;2.13;;;;;;;20.29;52.00;99063.84;5417752;26;20635;-26
2024/04/11 08:31:11;;;;;;;2.50;2.30;;;;;;;20.25;52.12;99061.91;5427367;26;20689;-27
2024/04/11 08:33:38;;;;;;;2.20;2.00;;;;;;;20.21;52.68;99071.06;5431004;26;20237;-25
2024/04/11 08:36:08;;;;;;;2.20;2.00;;;;;;;20.19;52.67;99071.75;5423620;26;20269;-26
2024/04/11 08:38:36;;;;;;;2.57;2.30;;;;;;;20.17;52.88;99070.78;5419892;26;20644;-25
2024/04/11 08:41:12;;;;;;;2.40;2.20;;;;;;;20.16;52.38;99074.13;5448509;26;20229;-25
2024/04/11 08:43:45;;;;;;;2.57;2.27;;;;;;;20.17;52.45;99071.69;5422577;26;20582;-27
2024/04/11 08:46:12;;;;;;;2.10;2.00;;;;;;;20.19;52.73;99082.84;5425956;26;20230;-25
2024/04/11 08:48:39;;;;;;;2.30;2.10;;;;;;;20.20;52.26;99087.16;5423896;26;20266;-26
2024/04/11 08:51:19;;;;;;;2.60;2.30;;;;;;;20.23;52.43;99089.00;5447640;26;20263;-26
2024/04/11 08:53:55;;;;;;;2.33;2.13;;;;;;;20.23;52.73;99099.22;5421359;26;20237;-26
2024/04/11 08:56:30;;;;;;;2.57;2.37;;;;;;;20.24;52.84;99094.22;5413166;26;20230;-27
2024/04/11 08:58:58;;;;;;;2.30;2.10;;;;;;;20.27;52.45;99101.16;5405210;26;20786;-27
2024/04/11 09:01:25;;;;;;;2.40;2.03;;;;;;;20.28;52.19;99097.84;5421266;26;20269;-26
2024/04/11 09:03:52;;;;;;;3.90;2.07;;;;;;;20.29;52.66;99102.13;5403738;26;20234;-26
2024/04/11 09:06:24;;;;;;;2.47;2.20;;;;;;;20.28;52.53;99098.69;5411469;26;20836;-27
2024/04/11 09:08:51;;;;;;;2.30;2.10;;;;;;;20.27;52.78;99103.72;5420983;26;20697;-25
2024/04/11 09:11:18;;;;;;;3.53;2.23;;;;;;;20.21;52.94;99096.59;5425802;26;20317;-28
2024/04/11 09:13:48;;;;;;;2.87;2.20;;;;;;;20.20;52.59;99106.69;5425087;26;20269;-27
2024/04/11 09:16:15;;;;;;;2.20;2.00;;;;;;;20.19;53.13;99112.59;5443887;26;20664;-26
2024/04/11 09:18:43;;;;;;;2.43;2.13;;;;;;;20.18;52.71;99113.38;5435342;26;20225;-28
2024/04/11 09:21:11;;;;;;;2.73;2.10;;;;;;;20.18;52.89;99105.72;5431713;26;20731;-27
2024/04/11 09:23:46;;;;;;;2.97;2.23;;;;;;;20.19;52.75;99107.50;5466510;26;20297;-25
2024/04/11 09:26:13;;;;;;;2.20;2.00;;;;;;;20.20;53.05;99099.94;5436709;26;20835;-27
2024/04/11 09:28:42;;;;;;;2.43;2.23;;;;;;;20.22;52.98;99105.13;5417111;26;20277;-26
2024/04/11 09:31:09;;;;;;;3.10;2.30;;;;;;;20.23;52.34;99100.13;5432179;26;20297;-26
2024/04/11 09:33:39;;;;;;;2.27;2.00;;;;;;;20.26;52.09;99097.75;5423057;26;20347;-26
2024/04/11 09:36:10;;;;;;;2.40;2.20;;;;;;;20.27;52.21;99089.28;5442168;26;20243;-26
2024/04/11 09:38:38;;;;;;;2.20;2.00;;;;;;;20.27;52.29;99088.38;5427566;26;20233;-27
2024/04/11 09:41:04;;;;;;;2.47;2.13;;;;;;;20.28;52.64;99085.06;5422908;26;20335;-26
2024/04/11 09:43:34;;;;;;;2.30;2.10;;;;;;;20.31;52.23;99085.25;5430598;26;20233;-27
2024/04/11 09:46:06;;;;;;;2.33;2.10;;;;;;;20.25;52.53;99077.22;5421532;26;20801;-26
2024/04/11 09:48:38;;;;;;;2.20;2.00;;;;;;;20.23;52.33;99076.25;5413274;26;20570;-26
2024/04/11 09:51:10;;;;;;;3.17;2.10;;;;;;;20.20;52.66;99073.50;5419374;26;20242;-26
2024/04/11 09:53:36;;;;;;;2.20;2.00;;;;;;;20.19;52.70;99069.22;5432144;26;20237;-26
2024/04/11 09:56:08;;;;;;;2.07;1.97;;;;;;;20.18;53.06;99077.63;5415973;26;20238;-26
2024/04/11 09:58:38;;;;;;;2.30;2.10;;;;;;;20.18;53.07;99080.19;5425715;26;20265;-28
2024/04/11 10:01:16;;;;;;;2.10;2.00;;;;;;;20.18;52.50;99075.97;5430134;26;20340;-25
2024/04/11 10:03:45;;;;;;;2.40;2.10;;;;;;;20.19;52.49;99077.72;5432039;26;20234;-26
2024/04/11 10:06:13;;;;;;;2.20;2.00;;;;;;;20.22;52.95;99082.16;5424429;26;20231;-26
2024/04/11 10:08:43;;;;;;;2.33;2.07;;;;;;;20.20;52.41;99066.75;5431966;26;20234;-25
2024/04/11 10:11:10;;;;;;;3.13;2.10;;;;;;;20.25;52.33;99077.22;5433886;26;20234;-26
2024/04/11 10:13:40;;;;;;;2.30;2.10;;;;;;;20.27;52.39;99078.19;5443640;26;20233;-28
2024/04/11 10:16:21;;;;;;;2.20;2.00;;;;;;;20.29;52.27;99079.16;5422794;26;20242;-27
2024/04/11 10:18:53;;;;;;;2.17;1.90;;;;;;;20.29;52.32;99082.59;5427710;26;20297;-27
2024/04/11 10:21:25;;;;;;;2.00;1.80;;;;;;;20.31;52.47;99082.69;5429591;26;20237;-26
2024/04/11 10:24:16;;;;;;;1.93;1.80;;;;;;;20.26;52.51;99077.31;5415515;26;20776;-26
2024/04/11 10:26:50;;;;;;;2.30;2.10;;;;;;;20.23;53.10;99079.69;5440662;26;20225;-26
2024/04/11 10:29:20;;;;;;;2.20;2.00;;;;;;;20.18;52.62;99070.88;5431951;26;20226;-27
2024/04/11 10:31:58;;;;;;;2.63;2.13;;;;;;;20.18;52.69;99073.44;5430547;26;20467;-26
2024/04/11 10:34:34;;;;;;;1.80;1.70;;;;;;;20.17;52.73;99071.69;5446728;26;20603;-26
2024/04/11 10:37:02;;;;;;;2.70;2.07;;;;;;;20.19;53.28;99072.63;5418484;26;20238;-27
2024/04/11 10:39:35;;;;;;;2.40;2.00;;;;;;;20.19;52.72;99069.22;5435250;26;20272;-26
2024/04/11 10:42:03;;;;;;;2.20;2.00;;;;;;;20.22;52.85;99069.38;5438974;26;20261;-27
2024/04/11 10:44:30;;;;;;;3.07;1.73;;;;;;;20.23;53.24;99074.59;5421344;26;20265;-26
2024/04/11 10:46:56;;;;;;;2.53;2.10;;;;;;;20.25;52.61;99075.53;5425238;26;20230;-26
2024/04/11 10:49:28;;;;;;;2.00;1.80;;;;;;;20.27;53.02;99071.41;5426078;26;20229;-26
2024/04/11 10:51:58;;;;;;;2.57;2.00;;;;;;;20.28;52.88;99064.66;5393971;26;20645;-26
2024/04/11 10:54:30;;;;;;;2.00;1.80;;;;;;;20.29;53.27;99061.28;5434491;26;20279;-27
2024/04/11 10:56:58;;;;;;;2.27;1.90;;;;;;;20.05;52.84;99016.44;5414729;26;20269;-26
2024/04/11 10:59:26;;;;;;;1.90;1.80;;;;;;;20.31;52.94;99065.69;5430641;26;20301;-27
2024/04/11 11:02:08;;;;;;;1.90;1.77;;;;;;;20.25;53.27;99059.34;5423224;26;20272;-26
2024/04/11 11:04:40;;;;;;;2.67;1.90;;;;;;;20.22;52.78;99066.84;5435064;26;20302;-27
2024/04/11 11:07:09;;;;;;;2.17;1.97;;;;;;;20.20;53.29;99069.31;5418051;26;20234;-25
2024/04/11 11:09:42;;;;;;;1.83;1.73;;;;;;;20.19;53.12;99074.31;5436924;26;20253;-26
2024/04/11 11:12:15;;;;;;;2.30;1.97;;;;;;;20.18;52.90;99069.97;5443598;26;20288;-25
2024/04/11 11:14:43;;;;;;;2.23;1.97;;;;;;;20.19;53.06;99075.19;5419943;26;20245;-26
2024/04/11 11:17:17;;;;;;;4.53;2.17;;;;;;;20.23;53.42;99077.13;5436365;26;20229;-27
2024/04/11 11:19:45;;;;;;;2.73;2.00;;;;;;;20.24;53.46;99066.13;5414935;26;20242;-27
2024/04/11 11:22:14;;;;;;;2.03;1.80;;;;;;;20.24;53.15;99063.56;5436094;26;20252;-25
2024/04/11 11:24:42;;;;;;;4.37;1.90;;;;;;;20.25;52.64;99061.91;5438608;26;20238;-25
2024/04/11 11:27:09;;;;;;;1.77;1.60;;;;;;;20.27;52.50;99061.19;5426035;26;20306;-27
2024/04/11 11:29:42;;;;;;;1.80;1.70;;;;;;;20.29;52.54;99059.63;5416512;26;20234;-25
2024/04/11 11:32:21;;;;;;;2.87;2.00;;;;;;;20.23;52.72;99045.63;5432934;26;20646;-27
2024/04/11 11:34:51;;;;;;;3.20;2.00;;;;;;;20.33;52.89;99055.56;5429271;26;20277;-26
2024/04/11 11:37:21;;;;;;;2.53;2.00;;;;;;;20.25;52.59;99049.16;5420466;26;20242;-25
2024/04/11 11:39:55;;;;;;;2.77;1.83;;;;;;;20.22;52.86;99054.06;5438032;26;20242;-27
2024/04/11 11:42:27;;;;;;;1.97;1.80;;;;;;;20.19;52.53;99043.69;5435219;26;20763;-26
2024/04/11 11:47:35;;;;;;;2.50;1.90;;;;;;;20.14;52.83;99043.41;5421692;26;20294;-27
2024/04/11 11:50:10;;;;;;;3.20;2.20;;;;;;;20.18;52.87;99040.25;5416913;26;20226;-28